Time;durP1;ratioP1;P1;durP2;ratioP2;P2;SDS_P1;SDS_P2;PMS_P1;PMS_P2;Temp;Humidity;BMP_temperature;BMP_pressure;BME280_temperature;BME280_humidity;BME280_pressure;Samples;Min_cycle;Max_cycle;Signal;HPM_P1;HPM_P2
2022/08/03 00:02:20;;;;;;;7.35;3.80;;;19.40;99.90;;;;;;5089340;28;20240;-71
2022/08/03 00:04:47;;;;;;;4.53;4.07;;;19.40;99.90;;;;;;5087904;28;20201;-71
2022/08/03 00:07:15;;;;;;;4.40;4.00;;;19.40;99.90;;;;;;5084662;28;20230;-72
2022/08/03 00:09:42;;;;;;;4.15;3.75;;;19.30;99.90;;;;;;5089247;28;20603;-72
2022/08/03 00:12:09;;;;;;;6.85;3.95;;;19.30;99.90;;;;;;5085238;28;20290;-72
2022/08/03 00:14:36;;;;;;;4.00;3.60;;;19.30;99.90;;;;;;5073970;28;20234;-78
2022/08/03 00:17:04;;;;;;;3.90;3.60;;;19.30;99.90;;;;;;5084787;28;20313;-78
2022/08/03 00:19:32;;;;;;;4.72;4.32;;;19.20;99.90;;;;;;5092541;28;20592;-78
2022/08/03 00:21:59;;;;;;;5.43;4.90;;;19.10;99.90;;;;;;5092197;28;20734;-78
2022/08/03 00:24:26;;;;;;;5.45;4.85;;;18.90;99.90;;;;;;5093406;28;20626;-78
2022/08/03 00:26:53;;;;;;;5.45;4.20;;;18.80;99.90;;;;;;5085014;28;20639;-78
2022/08/03 00:29:20;;;;;;;4.78;4.00;;;18.70;99.90;;;;;;5092675;28;20560;-78
2022/08/03 00:31:46;;;;;;;4.53;4.03;;;18.70;99.90;;;;;;5093117;28;20198;-78
2022/08/03 00:34:15;;;;;;;6.25;3.90;;;18.90;99.90;;;;;;5084120;28;20211;-79
2022/08/03 00:36:41;;;;;;;4.78;3.80;;;18.90;99.90;;;;;;5088389;28;20232;-79
2022/08/03 00:39:09;;;;;;;4.82;4.40;;;18.80;99.90;;;;;;5093024;28;20271;-78
2022/08/03 00:41:36;;;;;;;5.07;4.68;;;18.70;99.90;;;;;;5093006;28;20300;-78
2022/08/03 00:44:03;;;;;;;6.80;5.13;;;18.60;99.90;;;;;;5092881;28;20197;-78
2022/08/03 00:46:30;;;;;;;7.22;4.85;;;18.30;99.90;;;;;;5092296;28;20193;-78
2022/08/03 00:48:56;;;;;;;6.32;5.32;;;18.20;99.90;;;;;;5091586;28;20286;-78
2022/08/03 00:51:26;;;;;;;6.15;4.82;;;18.30;99.90;;;;;;5093074;28;20671;-78
2022/08/03 00:53:53;;;;;;;6.55;5.03;;;18.40;99.90;;;;;;5091894;28;20205;-78
2022/08/03 00:56:20;;;;;;;6.70;4.22;;;18.50;99.90;;;;;;5095630;28;20193;-79
2022/08/03 00:58:47;;;;;;;6.55;4.95;;;18.50;99.90;;;;;;5096766;28;20204;-78
2022/08/03 01:01:14;;;;;;;6.63;4.72;;;18.40;99.90;;;;;;5095730;28;20570;-79
2022/08/03 01:03:42;;;;;;;5.30;4.80;;;18.40;99.90;;;;;;5096588;28;20649;-79
2022/08/03 01:06:16;;;;;;;7.07;4.55;;;18.30;99.90;;;;;;5095392;28;20323;-78
2022/08/03 01:08:52;;;;;;;6.43;4.68;;;18.40;99.90;;;;;;5096068;28;20204;-79
2022/08/03 01:11:26;;;;;;;5.63;4.50;;;18.50;99.90;;;;;;5096228;28;20193;-78
2022/08/03 01:14:00;;;;;;;6.22;4.55;;;18.40;99.90;;;;;;5095385;28;20213;-79
2022/08/03 01:16:33;;;;;;;7.03;4.45;;;18.40;99.90;;;;;;5087911;28;20729;-78
2022/08/03 01:19:09;;;;;;;5.22;4.72;;;18.40;99.90;;;;;;5095117;28;20217;-78
2022/08/03 01:21:47;;;;;;;7.22;4.82;;;18.40;99.90;;;;;;5095880;28;20292;-78
2022/08/03 01:24:30;;;;;;;5.13;4.63;;;18.30;99.90;;;;;;5096378;28;20542;-78
2022/08/03 01:27:05;;;;;;;6.72;4.72;;;18.10;99.90;;;;;;5095239;28;20196;-79
2022/08/03 01:29:57;;;;;;;5.38;4.80;;;18.00;99.90;;;;;;5080617;28;20642;-79
2022/08/03 01:32:29;;;;;;;6.15;4.85;;;18.00;99.90;;;;;;5095715;28;20202;-78
2022/08/03 01:35:02;;;;;;;6.53;4.63;;;18.00;99.90;;;;;;5094897;28;20197;-78
2022/08/03 01:37:35;;;;;;;5.40;4.90;;;18.00;99.90;;;;;;5095448;28;20224;-78
2022/08/03 01:40:03;;;;;;;4.60;4.15;;;18.00;99.90;;;;;;5095636;28;20635;-79
2022/08/03 01:42:32;;;;;;;5.18;4.55;;;17.90;99.90;;;;;;5095136;28;20208;-78
2022/08/03 01:45:01;;;;;;;5.22;4.72;;;18.00;99.90;;;;;;5095433;28;20636;-79
2022/08/03 01:47:29;;;;;;;5.10;4.53;;;18.10;99.90;;;;;;5094491;28;20186;-78
2022/08/03 01:49:58;;;;;;;5.68;4.63;;;18.00;99.90;;;;;;5095494;28;20204;-79
2022/08/03 01:52:27;;;;;;;6.60;5.30;;;18.00;99.90;;;;;;5092655;28;20205;-79
2022/08/03 01:54:55;;;;;;;4.90;4.43;;;18.00;99.90;;;;;;5091578;28;20289;-79
2022/08/03 01:57:23;;;;;;;5.32;4.82;;;18.00;99.90;;;;;;5079556;28;20214;-79
2022/08/03 01:59:52;;;;;;;5.90;4.90;;;18.10;99.90;;;;;;5086334;28;20663;-78
2022/08/03 02:02:20;;;;;;;6.30;4.70;;;18.10;99.90;;;;;;5094472;28;20228;-79
2022/08/03 02:04:48;;;;;;;7.20;4.75;;;17.80;99.90;;;;;;5095694;28;20288;-79
2022/08/03 02:07:16;;;;;;;4.88;4.35;;;17.90;99.90;;;;;;5094095;28;20194;-79
2022/08/03 02:09:46;;;;;;;7.57;5.18;;;17.90;99.90;;;;;;5095229;28;20216;-79
2022/08/03 02:12:14;;;;;;;5.60;4.93;;;17.90;99.90;;;;;;5094958;28;20198;-79
2022/08/03 02:14:43;;;;;;;5.22;4.57;;;17.90;99.90;;;;;;5094973;28;20217;-78
2022/08/03 02:17:13;;;;;;;5.07;4.50;;;17.90;99.90;;;;;;5094808;28;20228;-79
2022/08/03 02:19:43;;;;;;;5.60;4.93;;;17.90;99.90;;;;;;5093519;28;20751;-78
2022/08/03 02:22:12;;;;;;;6.57;5.18;;;17.90;99.90;;;;;;5094553;28;20197;-78
2022/08/03 02:24:39;;;;;;;5.40;4.90;;;17.90;99.90;;;;;;5094860;28;20208;-79
2022/08/03 02:27:12;;;;;;;8.95;5.07;;;17.80;99.90;;;;;;5094225;28;20204;-79
2022/08/03 02:29:41;;;;;;;6.43;5.80;;;17.90;99.90;;;;;;5094192;28;20286;-79
2022/08/03 02:32:11;;;;;;;5.50;5.00;;;17.80;99.90;;;;;;5093991;28;20201;-79
2022/08/03 02:34:39;;;;;;;8.00;5.28;;;17.80;99.90;;;;;;5094781;28;20190;-79
2022/08/03 02:37:10;;;;;;;5.95;5.05;;;17.90;99.90;;;;;;5089242;28;20257;-79
2022/08/03 02:39:37;;;;;;;6.07;5.40;;;18.00;99.90;;;;;;5091561;28;20209;-78
2022/08/03 02:42:07;;;;;;;5.35;4.80;;;17.90;99.90;;;;;;5089116;28;20202;-78
2022/08/03 02:44:35;;;;;;;5.47;4.97;;;17.80;99.90;;;;;;5090852;28;20194;-79
2022/08/03 02:47:07;;;;;;;5.47;4.85;;;17.80;99.90;;;;;;5094036;28;20562;-78
2022/08/03 02:49:36;;;;;;;6.05;5.53;;;17.80;99.90;;;;;;5093537;28;20208;-78
2022/08/03 02:52:05;;;;;;;8.32;5.20;;;17.80;99.90;;;;;;5093367;28;20201;-78
2022/08/03 02:54:35;;;;;;;5.45;4.95;;;17.80;99.90;;;;;;5093111;28;20202;-78
2022/08/03 02:57:03;;;;;;;7.63;5.43;;;17.80;99.90;;;;;;5093845;28;20300;-78
2022/08/03 02:59:32;;;;;;;7.32;5.30;;;17.80;99.90;;;;;;5092828;28;20672;-78
2022/08/03 03:02:00;;;;;;;8.85;5.72;;;17.70;99.90;;;;;;5091617;28;20206;-78
2022/08/03 03:04:29;;;;;;;5.78;4.97;;;17.70;99.90;;;;;;5093460;28;20201;-78
2022/08/03 03:06:57;;;;;;;5.53;5.03;;;17.60;99.90;;;;;;5093034;28;20197;-78
2022/08/03 03:09:24;;;;;;;5.97;5.38;;;17.50;99.90;;;;;;5094185;28;20228;-79
2022/08/03 03:11:54;;;;;;;8.07;6.00;;;17.50;99.90;;;;;;5094533;28;20201;-79
2022/08/03 03:14:23;;;;;;;8.95;7.95;;;17.50;99.90;;;;;;5093953;28;20206;-78
2022/08/03 03:16:51;;;;;;;9.32;6.70;;;17.40;99.90;;;;;;5094611;28;20233;-78
2022/08/03 03:19:20;;;;;;;7.20;5.57;;;17.50;99.90;;;;;;5092335;28;20228;-78
2022/08/03 03:21:48;;;;;;;7.75;5.80;;;17.40;99.90;;;;;;5093352;28;20201;-79
2022/08/03 03:24:16;;;;;;;5.40;4.90;;;17.40;99.90;;;;;;5093414;28;20204;-79
2022/08/03 03:26:44;;;;;;;7.53;5.25;;;17.40;99.90;;;;;;5085902;28;20708;-78
2022/08/03 03:29:12;;;;;;;5.50;4.93;;;17.40;99.90;;;;;;5093419;28;20198;-79
2022/08/03 03:31:39;;;;;;;7.47;5.00;;;17.40;99.90;;;;;;5084280;28;20194;-79
2022/08/03 03:34:07;;;;;;;7.97;5.60;;;17.50;99.90;;;;;;5091638;28;20201;-78
2022/08/03 03:36:34;;;;;;;5.72;4.80;;;17.50;99.90;;;;;;5093055;28;20206;-78
2022/08/03 03:39:00;;;;;;;6.38;5.03;;;17.40;99.90;;;;;;5092844;28;20239;-78
2022/08/03 03:41:28;;;;;;;6.10;4.97;;;17.40;99.90;;;;;;5093196;28;20208;-78
2022/08/03 03:43:55;;;;;;;7.93;5.20;;;17.40;99.90;;;;;;5093036;28;20605;-78
2022/08/03 03:46:23;;;;;;;5.97;5.38;;;17.30;99.90;;;;;;5093126;28;20296;-78
2022/08/03 03:48:50;;;;;;;6.80;4.90;;;17.30;99.90;;;;;;5090629;28;20281;-78
2022/08/03 03:51:17;;;;;;;6.05;5.10;;;17.30;99.90;;;;;;5088035;28;20198;-78
2022/08/03 03:53:56;;;;;;;7.10;5.15;;;17.30;99.90;;;;;;5091237;28;20209;-78
2022/08/03 03:56:23;;;;;;;7.68;5.30;;;17.30;99.90;;;;;;5091788;28;20197;-78
2022/08/03 03:58:50;;;;;;;9.93;5.35;;;17.40;99.90;;;;;;5091483;28;20271;-78
2022/08/03 04:01:17;;;;;;;8.70;6.43;;;17.40;99.90;;;;;;5095732;28;20208;-78
2022/08/03 04:03:45;;;;;;;7.95;6.80;;;17.70;99.90;;;;;;5092401;28;20628;-78
2022/08/03 04:11:47;;;;;;;6.82;4.75;;;18.90;99.90;;;;;;5088301;28;20709;-78
2022/08/03 04:14:18;;;;;;;5.18;4.68;;;18.90;99.90;;;;;;5075059;28;20232;-78
2022/08/03 04:16:49;;;;;;;6.90;5.30;;;19.00;99.90;;;;;;5073720;28;20659;-78
2022/08/03 04:19:21;;;;;;;5.63;5.03;;;18.60;99.90;;;;;;5090638;28;20224;-78
2022/08/03 04:21:51;;;;;;;5.50;4.95;;;18.30;99.90;;;;;;5090156;28;20213;-78
2022/08/03 04:24:20;;;;;;;4.93;4.40;;;18.10;99.90;;;;;;5090579;28;20655;-78
2022/08/03 04:26:50;;;;;;;5.63;5.13;;;18.00;99.90;;;;;;5092453;28;20288;-78
2022/08/03 04:29:18;;;;;;;5.95;4.93;;;18.00;99.90;;;;;;5091304;28;20197;-78
2022/08/03 04:31:46;;;;;;;5.72;5.00;;;18.00;99.90;;;;;;5092271;28;20581;-78
2022/08/03 04:34:13;;;;;;;6.30;4.90;;;18.30;99.90;;;;;;5091986;28;20206;-78
2022/08/03 04:36:48;;;;;;;5.90;5.30;;;18.60;99.90;;;;;;5091751;28;20614;-78
2022/08/03 04:39:19;;;;;;;6.20;4.85;;;18.50;99.90;;;;;;5091873;28;20462;-78
2022/08/03 04:41:48;;;;;;;5.20;4.70;;;18.50;99.90;;;;;;5072558;28;20198;-78
2022/08/03 04:44:16;;;;;;;6.13;4.80;;;18.40;99.90;;;;;;5082465;28;20205;-78
2022/08/03 04:46:44;;;;;;;6.45;4.93;;;18.50;99.90;;;;;;5082651;28;20204;-78
2022/08/03 04:49:12;;;;;;;5.45;4.90;;;18.90;99.90;;;;;;5090893;28;20206;-78
2022/08/03 04:51:39;;;;;;;5.53;5.00;;;19.10;99.90;;;;;;5091820;28;20282;-78
2022/08/03 04:54:12;;;;;;;6.93;4.97;;;18.90;99.90;;;;;;5091236;28;20240;-78
2022/08/03 04:56:40;;;;;;;6.90;4.00;;;18.80;99.90;;;;;;5091791;28;20208;-78
2022/08/03 04:59:07;;;;;;;4.60;4.07;;;18.60;99.90;;;;;;5091408;28;20217;-78
2022/08/03 05:01:33;;;;;;;5.47;4.90;;;18.80;99.90;;;;;;5091938;28;20375;-78
2022/08/03 05:04:00;;;;;;;6.90;4.88;;;18.80;99.90;;;;;;5092027;28;20552;-78
2022/08/03 05:06:28;;;;;;;7.30;4.88;;;18.80;99.90;;;;;;5091486;28;20563;-78
2022/08/03 05:08:55;;;;;;;7.18;4.90;;;18.90;99.90;;;;;;5091995;28;20592;-78
2022/08/03 05:11:23;;;;;;;5.22;4.72;;;19.10;99.90;;;;;;5091280;28;20296;-78
2022/08/03 05:13:50;;;;;;;5.10;4.32;;;19.60;99.90;;;;;;5091456;28;20209;-78
2022/08/03 05:16:17;;;;;;;5.63;4.50;;;20.10;99.90;;;;;;5085054;28;20557;-78
2022/08/03 05:18:44;;;;;;;6.90;4.70;;;19.60;99.90;;;;;;5088284;28;20328;-78
2022/08/03 05:21:12;;;;;;;7.10;5.18;;;19.40;99.90;;;;;;5091343;28;20194;-78
2022/08/03 05:23:40;;;;;;;8.02;5.43;;;19.40;99.90;;;;;;5073930;28;20203;-78
2022/08/03 05:26:07;;;;;;;6.88;4.55;;;19.20;99.90;;;;;;5071033;28;20203;-78
2022/08/03 05:28:35;;;;;;;6.30;5.00;;;19.30;99.90;;;;;;5071846;28;20198;-78
2022/08/03 05:31:02;;;;;;;6.10;4.63;;;19.40;99.90;;;;;;5089175;28;20206;-78
2022/08/03 05:33:29;;;;;;;5.88;4.65;;;19.50;99.90;;;;;;5091087;28;20220;-78
2022/08/03 05:35:56;;;;;;;6.70;4.40;;;19.60;99.90;;;;;;5090757;28;20292;-78
2022/08/03 05:38:23;;;;;;;6.18;4.78;;;19.70;99.90;;;;;;5091830;28;20224;-78
2022/08/03 05:40:50;;;;;;;6.03;4.47;;;19.70;99.90;;;;;;5091451;28;20271;-78
2022/08/03 05:43:17;;;;;;;5.00;4.57;;;19.70;99.90;;;;;;5093969;28;20205;-78
2022/08/03 05:45:45;;;;;;;6.57;4.38;;;19.50;99.90;;;;;;5095026;28;20662;-78
2022/08/03 05:48:12;;;;;;;6.78;4.30;;;19.80;99.90;;;;;;5094564;28;20570;-78
2022/08/03 05:50:39;;;;;;;5.47;4.70;;;20.00;99.90;;;;;;5094906;28;20201;-78
2022/08/03 05:53:05;;;;;;;5.40;4.28;;;20.10;99.90;;;;;;5094973;28;20220;-78
2022/08/03 05:55:32;;;;;;;5.78;4.30;;;20.80;99.90;;;;;;5093698;28;20205;-78
2022/08/03 05:58:01;;;;;;;6.90;4.30;;;20.50;99.90;;;;;;5094509;28;20220;-78
2022/08/03 06:00:28;;;;;;;4.90;4.45;;;20.40;99.90;;;;;;5095258;28;20206;-78
2022/08/03 06:02:56;;;;;;;4.30;3.88;;;20.30;99.90;;;;;;5091308;28;20206;-78
2022/08/03 06:05:25;;;;;;;5.05;4.53;;;20.50;99.90;;;;;;5089753;28;20194;-78
2022/08/03 06:07:52;;;;;;;7.63;4.10;;;20.70;99.90;;;;;;5091372;28;20269;-78
2022/08/03 06:10:20;;;;;;;4.93;3.85;;;20.70;99.90;;;;;;5089182;28;20204;-78
2022/08/03 06:12:48;;;;;;;4.47;3.95;;;20.80;99.90;;;;;;5094171;28;20582;-78
2022/08/03 06:15:15;;;;;;;6.20;3.88;;;20.90;99.90;;;;;;5094247;28;20595;-72
2022/08/03 06:17:46;;;;;;;4.88;3.95;;;21.10;99.90;;;;;;5093303;28;20652;-72
2022/08/03 06:20:16;;;;;;;4.35;3.88;;;21.30;99.90;;;;;;5094330;28;20274;-72
2022/08/03 06:22:43;;;;;;;5.03;3.70;;;21.60;99.90;;;;;;5094461;28;20204;-71
2022/08/03 06:25:10;;;;;;;5.78;3.95;;;21.70;99.90;;;;;;5093688;28;20207;-72
2022/08/03 06:27:38;;;;;;;4.55;3.67;;;21.80;99.90;;;;;;5094591;28;20208;-72
2022/08/03 06:30:09;;;;;;;4.90;3.78;;;22.00;99.90;;;;;;5094353;28;20643;-72
2022/08/03 06:32:36;;;;;;;4.68;3.80;;;22.00;99.90;;;;;;5093601;28;20209;-72
2022/08/03 06:35:03;;;;;;;5.00;3.75;;;22.00;99.90;;;;;;5093245;28;20289;-72
2022/08/03 06:37:32;;;;;;;4.78;3.35;;;22.10;99.90;;;;;;5094133;28;20198;-72
2022/08/03 06:39:58;;;;;;;4.60;3.75;;;22.10;99.90;;;;;;5093673;28;20217;-72
2022/08/03 06:42:25;;;;;;;5.68;3.55;;;22.20;99.90;;;;;;5094087;28;20202;-72
2022/08/03 06:44:52;;;;;;;4.50;3.65;;;22.30;99.90;;;;;;5094108;28;20198;-72
2022/08/03 06:47:19;;;;;;;4.60;3.22;;;22.60;99.90;;;;;;5078584;28;20205;-72
2022/08/03 06:49:46;;;;;;;3.70;3.40;;;22.90;99.90;;;;;;5091812;28;20202;-72
2022/08/03 06:52:13;;;;;;;5.55;3.45;;;23.00;99.90;;;;;;5093784;28;20250;-72
2022/08/03 06:54:41;;;;;;;5.53;3.50;;;23.20;99.90;;;;;;5093034;28;20202;-72
2022/08/03 06:57:10;;;;;;;3.47;3.20;;;23.40;99.90;;;;;;5093740;28;20201;-72
2022/08/03 06:59:37;;;;;;;6.60;3.40;;;23.50;99.60;;;;;;5093140;28;20217;-72
2022/08/03 07:02:05;;;;;;;3.40;3.15;;;23.70;90.20;;;;;;5093715;28;20620;-72
2022/08/03 07:04:32;;;;;;;4.45;2.95;;;23.90;90.60;;;;;;5093690;28;20209;-72
2022/08/03 07:06:59;;;;;;;4.15;3.17;;;24.10;83.20;;;;;;5093144;28;20263;-72
2022/08/03 07:09:25;;;;;;;3.75;3.05;;;24.20;80.30;;;;;;5093526;28;20214;-72
2022/08/03 07:11:54;;;;;;;5.38;3.13;;;24.50;73.10;;;;;;5093544;28;20587;-72
2022/08/03 07:14:21;;;;;;;3.30;3.10;;;24.60;69.60;;;;;;5093181;28;20202;-72
2022/08/03 07:16:47;;;;;;;3.53;3.13;;;24.60;68.50;;;;;;5093108;28;20220;-72
2022/08/03 07:19:14;;;;;;;3.53;3.03;;;24.60;68.30;;;;;;5092099;28;20243;-72
2022/08/03 07:21:41;;;;;;;5.80;3.35;;;24.70;68.60;;;;;;5093352;28;20643;-71
2022/08/03 07:24:08;;;;;;;4.05;2.97;;;24.80;65.70;;;;;;5092795;28;20674;-72
2022/08/03 07:26:35;;;;;;;3.30;3.03;;;24.80;61.70;;;;;;5093089;28;20220;-72
2022/08/03 07:29:04;;;;;;;3.28;2.97;;;24.80;69.20;;;;;;5093416;28;20204;-72
2022/08/03 07:31:31;;;;;;;3.67;3.20;;;24.80;67.40;;;;;;5090088;28;20205;-72
2022/08/03 07:33:58;;;;;;;6.68;3.15;;;25.00;63.00;;;;;;5072436;28;20236;-72
2022/08/03 07:36:25;;;;;;;5.68;3.08;;;24.90;63.50;;;;;;5073008;28;20578;-72
2022/08/03 07:38:52;;;;;;;4.15;3.30;;;25.00;59.90;;;;;;5072924;28;20225;-72
2022/08/03 07:41:19;;;;;;;4.38;3.00;;;25.10;58.70;;;;;;5080767;28;20198;-72
2022/08/03 07:43:46;;;;;;;5.13;3.10;;;25.20;59.90;;;;;;5084612;28;20208;-72
2022/08/03 07:46:14;;;;;;;3.15;2.90;;;25.20;58.70;;;;;;5092916;28;20233;-72
2022/08/03 07:48:41;;;;;;;5.47;3.22;;;25.30;56.60;;;;;;5092240;28;20559;-73
2022/08/03 07:51:08;;;;;;;3.08;2.88;;;25.40;56.60;;;;;;5092670;28;20296;-72
2022/08/03 07:53:35;;;;;;;5.13;2.60;;;25.50;54.00;;;;;;5092853;28;20292;-72
2022/08/03 07:56:02;;;;;;;3.50;3.03;;;25.70;56.60;;;;;;5093057;28;20247;-72
2022/08/03 07:58:29;;;;;;;3.80;2.75;;;25.70;54.60;;;;;;5092010;28;20292;-72
2022/08/03 08:00:56;;;;;;;5.30;3.10;;;25.90;56.10;;;;;;5092614;28;20288;-72
2022/08/03 08:03:25;;;;;;;3.88;2.90;;;26.10;54.00;;;;;;5096341;28;20284;-72
2022/08/03 08:05:53;;;;;;;3.22;2.95;;;26.20;50.30;;;;;;5085226;28;20209;-72
2022/08/03 08:08:20;;;;;;;4.03;2.75;;;26.30;54.40;;;;;;5090724;28;20205;-72
2022/08/03 08:10:46;;;;;;;5.07;2.65;;;26.30;50.40;;;;;;5087018;28;20213;-72
2022/08/03 08:13:13;;;;;;;3.92;2.80;;;26.30;48.50;;;;;;5082745;28;20194;-72
2022/08/03 08:15:40;;;;;;;3.38;2.67;;;26.30;49.50;;;;;;5077601;28;20197;-72
2022/08/03 08:18:07;;;;;;;4.18;2.60;;;26.40;47.50;;;;;;5091601;28;20312;-72
2022/08/03 08:20:36;;;;;;;2.60;2.35;;;26.40;46.60;;;;;;5092668;28;20692;-72
2022/08/03 08:23:05;;;;;;;3.22;2.50;;;26.40;47.30;;;;;;5091488;28;20197;-72
2022/08/03 08:25:32;;;;;;;5.68;2.50;;;26.40;48.70;;;;;;5092367;28;20207;-72
2022/08/03 08:28:02;;;;;;;5.10;2.53;;;26.50;45.30;;;;;;5091924;28;20202;-72
2022/08/03 08:30:32;;;;;;;6.57;2.72;;;26.60;44.50;;;;;;5092393;28;20294;-72
2022/08/03 08:32:59;;;;;;;3.95;2.13;;;26.60;45.60;;;;;;5091657;28;20206;-72
2022/08/03 08:35:26;;;;;;;2.70;2.50;;;26.60;45.00;;;;;;5092102;28;20717;-72
2022/08/03 08:37:54;;;;;;;6.63;2.60;;;26.70;46.10;;;;;;5091554;28;20198;-72
2022/08/03 08:40:22;;;;;;;2.90;2.67;;;26.90;47.00;;;;;;5092270;28;20255;-72
2022/08/03 08:42:50;;;;;;;2.92;2.55;;;26.90;48.10;;;;;;5091149;28;20206;-72
2022/08/03 08:45:18;;;;;;;3.40;2.63;;;26.90;46.90;;;;;;5092417;28;20556;-72
2022/08/03 08:47:47;;;;;;;2.83;2.42;;;27.00;47.80;;;;;;5091454;28;20213;-72
2022/08/03 08:50:17;;;;;;;2.70;2.50;;;27.10;45.50;;;;;;5092295;28;20651;-72
2022/08/03 08:52:47;;;;;;;5.55;2.40;;;27.20;42.90;;;;;;5091865;28;20208;-72
2022/08/03 08:55:21;;;;;;;3.72;2.60;;;27.40;43.60;;;;;;5091497;28;20216;-72
2022/08/03 08:57:50;;;;;;;4.85;2.80;;;27.40;44.30;;;;;;5081262;28;20201;-72
2022/08/03 09:00:18;;;;;;;3.67;2.28;;;27.50;45.00;;;;;;5071251;28;20226;-73
2022/08/03 09:02:46;;;;;;;5.47;2.60;;;27.70;41.10;;;;;;5084803;28;20229;-72
2022/08/03 09:05:13;;;;;;;3.47;2.47;;;28.10;41.10;;;;;;5070920;28;20206;-72
2022/08/03 09:07:41;;;;;;;3.97;2.47;;;28.20;37.90;;;;;;5088173;28;20581;-72
2022/08/03 09:10:09;;;;;;;3.80;2.17;;;28.50;36.80;;;;;;5091821;28;20202;-73
2022/08/03 09:12:43;;;;;;;3.28;2.58;;;28.90;34.00;;;;;;5091554;28;20213;-72
2022/08/03 09:15:23;;;;;;;4.43;2.40;;;29.30;32.30;;;;;;5091831;28;20280;-72
2022/08/03 09:17:51;;;;;;;5.50;2.15;;;29.90;31.90;;;;;;5083854;28;20576;-72
2022/08/03 09:20:19;;;;;;;2.47;2.28;;;30.10;30.10;;;;;;5074822;28;20244;-73
2022/08/03 09:22:53;;;;;;;4.43;2.45;;;30.10;27.80;;;;;;5075349;28;20289;-73
2022/08/03 09:25:26;;;;;;;5.07;2.15;;;29.90;26.30;;;;;;5074870;28;20198;-73
2022/08/03 09:27:54;;;;;;;5.13;2.30;;;30.10;27.50;;;;;;5091082;28;20668;-72
2022/08/03 09:30:21;;;;;;;6.03;2.17;;;30.30;26.50;;;;;;5090655;28;20194;-72
2022/08/03 09:32:48;;;;;;;2.50;2.28;;;30.50;25.50;;;;;;5095274;28;20216;-73
2022/08/03 09:35:15;;;;;;;2.40;2.05;;;30.20;24.70;;;;;;5094645;28;20275;-73
2022/08/03 09:37:42;;;;;;;4.00;2.55;;;30.50;25.80;;;;;;5095704;28;20283;-72
2022/08/03 09:40:09;;;;;;;4.85;2.60;;;30.70;22.90;;;;;;5094557;28;20721;-72
2022/08/03 09:42:38;;;;;;;2.35;2.13;;;31.10;25.00;;;;;;5095092;28;20251;-72
2022/08/03 09:45:07;;;;;;;2.58;2.38;;;31.10;23.50;;;;;;5095060;28;20682;-72
2022/08/03 09:47:36;;;;;;;3.65;2.83;;;31.60;23.00;;;;;;5095535;28;20296;-73
2022/08/03 09:50:05;;;;;;;4.05;2.72;;;31.50;22.50;;;;;;5095092;28;20213;-73
2022/08/03 09:52:34;;;;;;;3.90;2.70;;;32.00;21.50;;;;;;5094826;28;20201;-73
2022/08/03 09:55:02;;;;;;;3.97;2.63;;;32.10;20.40;;;;;;5094497;28;20551;-73
2022/08/03 09:57:30;;;;;;;3.25;2.80;;;31.50;20.90;;;;;;5095231;28;20205;-73
2022/08/03 10:00:11;;;;;;;3.15;2.85;;;31.80;19.80;;;;;;5094534;28;20253;-73
2022/08/03 10:02:38;;;;;;;5.97;2.50;;;31.90;20.20;;;;;;5093767;28;20553;-73
2022/08/03 10:05:07;;;;;;;3.47;2.50;;;31.90;19.90;;;;;;5087871;28;20296;-73
2022/08/03 10:07:43;;;;;;;3.92;2.70;;;32.00;17.90;;;;;;5085436;28;20216;-73
2022/08/03 10:10:10;;;;;;;6.18;2.45;;;32.20;19.30;;;;;;5094526;28;20213;-73
2022/08/03 10:12:38;;;;;;;3.50;2.72;;;32.60;19.50;;;;;;5094394;28;20202;-72
2022/08/03 10:15:08;;;;;;;2.50;2.30;;;32.50;17.60;;;;;;5094400;28;20213;-73
2022/08/03 10:17:35;;;;;;;3.30;2.50;;;33.00;16.20;;;;;;5093515;28;20675;-73
2022/08/03 10:20:03;;;;;;;2.42;2.20;;;33.10;15.40;;;;;;5094011;28;20240;-72
2022/08/03 10:22:33;;;;;;;2.35;2.22;;;32.60;14.80;;;;;;5093194;28;20233;-72
2022/08/03 10:25:03;;;;;;;3.70;2.53;;;32.50;13.60;;;;;;5093641;28;20205;-72
2022/08/03 10:27:34;;;;;;;2.30;2.20;;;33.10;14.60;;;;;;5093668;28;20198;-73
2022/08/03 10:30:04;;;;;;;2.58;2.25;;;33.10;13.40;;;;;;5082250;28;20211;-73
2022/08/03 10:32:38;;;;;;;3.85;2.20;;;32.80;12.60;;;;;;5094109;28;20652;-73
2022/08/03 10:35:07;;;;;;;2.80;2.60;;;32.60;13.10;;;;;;5093340;28;20212;-72
2022/08/03 10:37:41;;;;;;;3.67;2.40;;;33.10;12.00;;;;;;5093578;28;20201;-72
2022/08/03 10:40:09;;;;;;;2.85;2.40;;;33.10;12.60;;;;;;5094183;28;20760;-74
2022/08/03 10:42:37;;;;;;;2.38;2.15;;;32.90;12.20;;;;;;5093416;28;20567;-72
2022/08/03 10:45:07;;;;;;;3.92;2.55;;;33.00;11.90;;;;;;5094802;28;20254;-72
2022/08/03 10:47:36;;;;;;;6.55;2.92;;;32.90;13.80;;;;;;5092563;28;20197;-72
2022/08/03 10:50:04;;;;;;;3.70;2.53;;;32.90;12.10;;;;;;5093413;28;20236;-73
2022/08/03 10:52:32;;;;;;;2.95;2.70;;;33.40;11.10;;;;;;5094050;28;20400;-73
2022/08/03 10:57:52;;;;;;;4.25;2.60;;;33.00;9.80;;;;;;5093584;28;20220;-73
2022/08/03 11:00:21;;;;;;;2.85;2.40;;;33.50;10.90;;;;;;5093478;28;20232;-73
2022/08/03 11:03:09;;;;;;;2.55;2.42;;;33.80;10.20;;;;;;5091050;28;20338;-73
2022/08/03 11:05:39;;;;;;;3.30;2.47;;;34.00;11.50;;;;;;5090437;28;20297;-73
2022/08/03 11:08:29;;;;;;;5.28;2.92;;;33.50;9.30;;;;;;5088666;28;20205;-73
2022/08/03 11:10:59;;;;;;;2.60;2.40;;;33.60;9.50;;;;;;5073441;28;20565;-73
2022/08/03 11:13:29;;;;;;;2.97;2.72;;;33.70;10.00;;;;;;5077181;28;20578;-73
2022/08/03 11:15:59;;;;;;;2.70;2.50;;;33.70;8.60;;;;;;5093399;28;20251;-73
2022/08/03 11:18:28;;;;;;;3.28;2.65;;;33.90;9.40;;;;;;5093444;28;20219;-73
2022/08/03 11:20:57;;;;;;;3.22;2.63;;;33.30;9.00;;;;;;5092466;28;20221;-73
2022/08/03 11:23:44;;;;;;;2.80;2.60;;;33.10;9.60;;;;;;5093451;28;20559;-73
2022/08/03 11:26:13;;;;;;;3.00;2.70;;;33.80;10.10;;;;;;5092661;28;20292;-73
2022/08/03 11:28:41;;;;;;;3.15;2.55;;;33.90;9.20;;;;;;5093854;28;20186;-73
2022/08/03 11:31:48;;;;;;;3.83;2.78;;;33.70;9.20;;;;;;5092958;28;20197;-73
2022/08/03 11:34:17;;;;;;;3.22;2.90;;;33.90;9.40;;;;;;5091727;28;20286;-73
2022/08/03 11:37:19;;;;;;;2.60;2.40;;;34.20;10.20;;;;;;5093429;28;20202;-73
2022/08/03 11:39:47;;;;;;;3.30;2.90;;;34.10;9.10;;;;;;5091788;28;20213;-73
2022/08/03 11:42:39;;;;;;;2.90;2.70;;;33.90;9.30;;;;;;5093125;28;20290;-73
2022/08/03 11:45:09;;;;;;;4.55;2.85;;;33.70;10.80;;;;;;5092575;28;20205;-73
2022/08/03 11:47:39;;;;;;;3.55;3.10;;;33.70;8.80;;;;;;5092454;28;20201;-73
2022/08/03 11:50:08;;;;;;;3.38;3.08;;;33.90;9.10;;;;;;5092482;28;20197;-73
2022/08/03 11:52:38;;;;;;;4.10;2.88;;;33.90;9.10;;;;;;5092862;28;20293;-73
2022/08/03 11:55:11;;;;;;;4.60;3.20;;;34.30;9.20;;;;;;5092245;28;20197;-73
2022/08/03 11:57:38;;;;;;;3.05;2.85;;;34.50;10.20;;;;;;5074995;28;20648;-73
2022/08/03 12:00:29;;;;;;;3.78;3.03;;;33.90;7.10;;;;;;5072061;28;20752;-73
2022/08/03 12:03:05;;;;;;;3.60;3.05;;;34.00;8.00;;;;;;5092299;28;20723;-73
2022/08/03 12:05:52;;;;;;;4.95;3.10;;;33.80;7.20;;;;;;5086609;28;20208;-73
2022/08/03 12:08:30;;;;;;;4.20;2.70;;;33.80;8.10;;;;;;5085611;28;20211;-72
2022/08/03 12:10:58;;;;;;;2.80;2.60;;;34.20;9.20;;;;;;5087650;28;20282;-72
2022/08/03 12:13:25;;;;;;;3.47;2.85;;;34.50;7.70;;;;;;5083907;28;20247;-73
2022/08/03 12:15:54;;;;;;;2.90;2.70;;;34.40;7.80;;;;;;5092217;28;20201;-73
2022/08/03 12:18:21;;;;;;;3.00;2.80;;;34.40;6.20;;;;;;5077236;28;20636;-73
2022/08/03 12:20:50;;;;;;;3.40;2.65;;;34.30;5.80;;;;;;5072018;28;20649;-73
2022/08/03 12:23:19;;;;;;;3.40;3.10;;;34.40;6.40;;;;;;5072385;28;20235;-72
2022/08/03 12:25:47;;;;;;;2.90;2.70;;;34.00;7.20;;;;;;5086793;28;20296;-72
2022/08/03 12:28:17;;;;;;;3.28;2.97;;;33.90;7.00;;;;;;5092295;28;20569;-73
2022/08/03 12:30:47;;;;;;;7.18;2.97;;;34.40;7.40;;;;;;5091904;28;20194;-72
2022/08/03 12:33:21;;;;;;;3.03;2.83;;;34.30;8.10;;;;;;5091932;28;20554;-73
2022/08/03 12:35:51;;;;;;;3.50;2.65;;;34.60;6.90;;;;;;5091236;28;20193;-73
2022/08/03 12:38:23;;;;;;;3.45;2.80;;;34.70;9.00;;;;;;5092492;28;20538;-73
2022/08/03 12:41:07;;;;;;;3.33;3.00;;;34.90;6.30;;;;;;5091362;28;20312;-73
2022/08/03 12:43:34;;;;;;;3.10;2.80;;;34.30;5.10;;;;;;5092209;28;20205;-73
2022/08/03 12:46:11;;;;;;;3.00;2.80;;;34.80;6.00;;;;;;5091475;28;20297;-73
2022/08/03 12:49:00;;;;;;;3.38;2.90;;;34.40;5.30;;;;;;5091930;28;20201;-73
2022/08/03 12:51:27;;;;;;;2.95;2.70;;;34.40;6.50;;;;;;5073354;28;20285;-73
2022/08/03 12:53:57;;;;;;;2.70;2.50;;;34.60;5.90;;;;;;5081378;28;20211;-73
2022/08/03 12:56:24;;;;;;;3.50;2.78;;;34.10;5.60;;;;;;5096039;28;20201;-73
2022/08/03 12:58:51;;;;;;;5.70;3.45;;;34.70;7.20;;;;;;5095853;28;20579;-73
2022/08/03 13:01:21;;;;;;;3.67;3.00;;;34.90;6.60;;;;;;5095342;28;20216;-73
2022/08/03 13:03:50;;;;;;;2.72;2.53;;;34.80;5.30;;;;;;5086233;28;20292;-73
2022/08/03 13:06:20;;;;;;;3.13;2.83;;;34.90;5.60;;;;;;5075754;28;20202;-73
2022/08/03 13:08:47;;;;;;;4.32;2.95;;;34.90;6.10;;;;;;5092326;28;20206;-73